sensor_id;sensor_type;location;lat;lon;timestamp;temperature;humidity
3156;DHT22;1588;50.892;7.082;2023-09-18T00:04:42;19.50;99.90
3156;DHT22;1588;50.892;7.082;2023-09-18T00:09:46;19.40;99.90
3156;DHT22;1588;50.892;7.082;2023-09-18T00:14:50;19.20;99.90
3156;DHT22;1588;50.892;7.082;2023-09-18T00:19:53;19.10;99.90
3156;DHT22;1588;50.892;7.082;2023-09-18T00:24:57;19.00;99.90
3156;DHT22;1588;50.892;7.082;2023-09-18T00:29:59;18.90;99.90
3156;DHT22;1588;50.892;7.082;2023-09-18T00:35:02;18.80;99.90
3156;DHT22;1588;50.892;7.082;2023-09-18T00:40:07;18.80;99.90
3156;DHT22;1588;50.892;7.082;2023-09-18T00:45:10;18.70;99.90
3156;DHT22;1588;50.892;7.082;2023-09-18T00:50:13;18.70;99.90
3156;DHT22;1588;50.892;7.082;2023-09-18T00:55:18;18.60;99.90
3156;DHT22;1588;50.892;7.082;2023-09-18T01:00:21;18.60;99.90
3156;DHT22;1588;50.892;7.082;2023-09-18T01:05:23;18.50;99.90
3156;DHT22;1588;50.892;7.082;2023-09-18T01:10:36;18.50;99.90
3156;DHT22;1588;50.892;7.082;2023-09-18T01:15:47;18.40;99.90
3156;DHT22;1588;50.892;7.082;2023-09-18T01:20:50;18.40;99.90
3156;DHT22;1588;50.892;7.082;2023-09-18T01:25:54;18.40;99.90
3156;DHT22;1588;50.892;7.082;2023-09-18T01:30:57;18.30;99.90
3156;DHT22;1588;50.892;7.082;2023-09-18T01:36:03;18.40;99.90
3156;DHT22;1588;50.892;7.082;2023-09-18T01:41:15;18.50;99.90
3156;DHT22;1588;50.892;7.082;2023-09-18T01:46:17;18.50;99.90
3156;DHT22;1588;50.892;7.082;2023-09-18T01:51:20;18.50;99.90
3156;DHT22;1588;50.892;7.082;2023-09-18T01:56:25;18.70;99.90
3156;DHT22;1588;50.892;7.082;2023-09-18T02:01:27;19.00;99.90
3156;DHT22;1588;50.892;7.082;2023-09-18T02:06:31;19.20;99.90
3156;DHT22;1588;50.892;7.082;2023-09-18T02:11:35;19.30;99.90
3156;DHT22;1588;50.892;7.082;2023-09-18T02:16:40;19.40;99.90
3156;DHT22;1588;50.892;7.082;2023-09-18T02:21:43;19.70;99.90
3156;DHT22;1588;50.892;7.082;2023-09-18T02:26:47;19.90;99.90
3156;DHT22;1588;50.892;7.082;2023-09-18T02:31:50;20.10;99.90
3156;DHT22;1588;50.892;7.082;2023-09-18T02:36:52;20.20;99.90
3156;DHT22;1588;50.892;7.082;2023-09-18T02:41:56;20.40;99.90
3156;DHT22;1588;50.892;7.082;2023-09-18T02:46:59;20.30;99.90
3156;DHT22;1588;50.892;7.082;2023-09-18T02:52:01;20.10;99.90
3156;DHT22;1588;50.892;7.082;2023-09-18T02:57:05;20.00;99.90
3156;DHT22;1588;50.892;7.082;2023-09-18T03:02:08;19.90;99.90
3156;DHT22;1588;50.892;7.082;2023-09-18T03:07:12;19.80;99.90
3156;DHT22;1588;50.892;7.082;2023-09-18T03:12:16;19.70;99.90
3156;DHT22;1588;50.892;7.082;2023-09-18T03:17:18;19.50;99.90
3156;DHT22;1588;50.892;7.082;2023-09-18T03:22:21;19.50;99.90
3156;DHT22;1588;50.892;7.082;2023-09-18T03:27:25;19.50;99.90
3156;DHT22;1588;50.892;7.082;2023-09-18T03:32:31;19.40;99.90
3156;DHT22;1588;50.892;7.082;2023-09-18T03:37:35;19.40;99.90
3156;DHT22;1588;50.892;7.082;2023-09-18T03:42:42;19.50;99.90
3156;DHT22;1588;50.892;7.082;2023-09-18T03:47:46;19.50;99.90
3156;DHT22;1588;50.892;7.082;2023-09-18T03:52:53;19.60;99.90
3156;DHT22;1588;50.892;7.082;2023-09-18T03:57:57;19.60;99.90
3156;DHT22;1588;50.892;7.082;2023-09-18T04:03:00;19.60;99.90
3156;DHT22;1588;50.892;7.082;2023-09-18T04:08:05;19.50;99.90
3156;DHT22;1588;50.892;7.082;2023-09-18T04:13:11;19.50;99.90
3156;DHT22;1588;50.892;7.082;2023-09-18T04:18:13;19.40;99.90
3156;DHT22;1588;50.892;7.082;2023-09-18T04:23:24;19.40;99.90
3156;DHT22;1588;50.892;7.082;2023-09-18T04:28:29;19.30;99.90
3156;DHT22;1588;50.892;7.082;2023-09-18T04:33:32;19.30;99.90
3156;DHT22;1588;50.892;7.082;2023-09-18T04:38:36;19.30;99.90
3156;DHT22;1588;50.892;7.082;2023-09-18T04:43:41;19.30;99.90
3156;DHT22;1588;50.892;7.082;2023-09-18T04:48:45;19.30;99.90
3156;DHT22;1588;50.892;7.082;2023-09-18T04:53:48;19.30;99.90
3156;DHT22;1588;50.892;7.082;2023-09-18T04:58:55;19.30;99.90
3156;DHT22;1588;50.892;7.082;2023-09-18T05:03:59;19.30;99.90
3156;DHT22;1588;50.892;7.082;2023-09-18T05:09:02;19.20;99.90
3156;DHT22;1588;50.892;7.082;2023-09-18T05:14:08;19.10;99.90
3156;DHT22;1588;50.892;7.082;2023-09-18T05:19:10;19.10;99.90
3156;DHT22;1588;50.892;7.082;2023-09-18T05:24:13;19.10;99.90
3156;DHT22;1588;50.892;7.082;2023-09-18T05:29:18;19.10;99.90
3156;DHT22;1588;50.892;7.082;2023-09-18T05:34:20;19.20;99.90
3156;DHT22;1588;50.892;7.082;2023-09-18T05:39:23;19.20;99.90
3156;DHT22;1588;50.892;7.082;2023-09-18T05:44:27;19.30;99.90
3156;DHT22;1588;50.892;7.082;2023-09-18T05:49:34;19.30;99.90
3156;DHT22;1588;50.892;7.082;2023-09-18T05:54:38;19.50;99.90
3156;DHT22;1588;50.892;7.082;2023-09-18T05:59:43;19.60;99.90
3156;DHT22;1588;50.892;7.082;2023-09-18T06:04:47;19.60;99.90
3156;DHT22;1588;50.892;7.082;2023-09-18T06:10:00;19.70;99.90
3156;DHT22;1588;50.892;7.082;2023-09-18T06:15:08;19.70;99.90
3156;DHT22;1588;50.892;7.082;2023-09-18T06:20:34;19.70;99.90
3156;DHT22;1588;50.892;7.082;2023-09-18T06:25:48;19.70;99.90
3156;DHT22;1588;50.892;7.082;2023-09-18T06:31:10;19.80;99.90
3156;DHT22;1588;50.892;7.082;2023-09-18T06:36:16;19.90;99.90
3156;DHT22;1588;50.892;7.082;2023-09-18T06:41:20;20.10;99.90
3156;DHT22;1588;50.892;7.082;2023-09-18T06:46:24;20.10;99.90
3156;DHT22;1588;50.892;7.082;2023-09-18T06:51:27;20.10;99.90
3156;DHT22;1588;50.892;7.082;2023-09-18T06:56:29;20.10;99.90
3156;DHT22;1588;50.892;7.082;2023-09-18T07:01:33;20.30;99.90
3156;DHT22;1588;50.892;7.082;2023-09-18T07:06:37;20.40;99.90
3156;DHT22;1588;50.892;7.082;2023-09-18T07:11:40;20.60;99.90
3156;DHT22;1588;50.892;7.082;2023-09-18T07:16:45;20.70;99.90
3156;DHT22;1588;50.892;7.082;2023-09-18T07:21:48;20.80;99.90
3156;DHT22;1588;50.892;7.082;2023-09-18T07:26:53;20.90;99.90
3156;DHT22;1588;50.892;7.082;2023-09-18T07:32:03;21.00;99.90
3156;DHT22;1588;50.892;7.082;2023-09-18T07:37:08;21.00;99.90
3156;DHT22;1588;50.892;7.082;2023-09-18T07:42:11;21.00;99.90
3156;DHT22;1588;50.892;7.082;2023-09-18T07:47:15;21.00;99.90
3156;DHT22;1588;50.892;7.082;2023-09-18T07:52:32;21.40;99.90
3156;DHT22;1588;50.892;7.082;2023-09-18T07:57:35;21.40;99.90
3156;DHT22;1588;50.892;7.082;2023-09-18T08:02:40;21.20;99.90
3156;DHT22;1588;50.892;7.082;2023-09-18T08:07:43;21.00;99.90
3156;DHT22;1588;50.892;7.082;2023-09-18T08:12:45;20.90;99.90
3156;DHT22;1588;50.892;7.082;2023-09-18T08:17:53;20.90;99.90
3156;DHT22;1588;50.892;7.082;2023-09-18T08:22:58;20.90;99.90
3156;DHT22;1588;50.892;7.082;2023-09-18T08:28:04;21.00;99.90
3156;DHT22;1588;50.892;7.082;2023-09-18T08:33:09;21.10;99.90
3156;DHT22;1588;50.892;7.082;2023-09-18T08:38:13;21.20;99.90
3156;DHT22;1588;50.892;7.082;2023-09-18T08:43:18;21.20;99.90
3156;DHT22;1588;50.892;7.082;2023-09-18T08:48:23;21.30;99.90
3156;DHT22;1588;50.892;7.082;2023-09-18T08:53:26;21.30;99.90
3156;DHT22;1588;50.892;7.082;2023-09-18T08:58:33;21.30;99.90
3156;DHT22;1588;50.892;7.082;2023-09-18T09:03:47;21.60;99.90
3156;DHT22;1588;50.892;7.082;2023-09-18T09:08:51;21.70;99.90
3156;DHT22;1588;50.892;7.082;2023-09-18T09:14:09;21.80;99.90
3156;DHT22;1588;50.892;7.082;2023-09-18T09:19:20;21.90;99.90
3156;DHT22;1588;50.892;7.082;2023-09-18T09:24:38;21.80;99.90
3156;DHT22;1588;50.892;7.082;2023-09-18T09:29:44;21.80;99.90
3156;DHT22;1588;50.892;7.082;2023-09-18T09:34:57;21.80;99.90
3156;DHT22;1588;50.892;7.082;2023-09-18T09:40:05;21.90;99.90
3156;DHT22;1588;50.892;7.082;2023-09-18T09:45:21;22.10;99.90
3156;DHT22;1588;50.892;7.082;2023-09-18T09:50:25;22.10;99.90
3156;DHT22;1588;50.892;7.082;2023-09-18T09:55:43;22.10;99.90
3156;DHT22;1588;50.892;7.082;2023-09-18T10:00:52;22.30;99.90
3156;DHT22;1588;50.892;7.082;2023-09-18T10:06:36;22.60;99.90
3156;DHT22;1588;50.892;7.082;2023-09-18T10:11:42;22.70;99.90
3156;DHT22;1588;50.892;7.082;2023-09-18T10:16:50;23.10;99.90
3156;DHT22;1588;50.892;7.082;2023-09-18T10:22:06;23.80;99.90
3156;DHT22;1588;50.892;7.082;2023-09-18T10:27:14;25.30;99.90
3156;DHT22;1588;50.892;7.082;2023-09-18T10:32:31;25.30;99.90
3156;DHT22;1588;50.892;7.082;2023-09-18T10:37:37;26.00;99.90
3156;DHT22;1588;50.892;7.082;2023-09-18T10:42:43;26.70;99.90
3156;DHT22;1588;50.892;7.082;2023-09-18T10:47:49;26.80;99.90
3156;DHT22;1588;50.892;7.082;2023-09-18T10:52:57;26.20;99.90
3156;DHT22;1588;50.892;7.082;2023-09-18T10:58:01;26.10;99.90
3156;DHT22;1588;50.892;7.082;2023-09-18T11:03:23;26.00;99.90
3156;DHT22;1588;50.892;7.082;2023-09-18T11:08:35;26.00;99.90
3156;DHT22;1588;50.892;7.082;2023-09-18T11:13:40;26.70;99.90
3156;DHT22;1588;50.892;7.082;2023-09-18T11:18:52;26.80;99.90
3156;DHT22;1588;50.892;7.082;2023-09-18T11:24:05;27.20;99.90
3156;DHT22;1588;50.892;7.082;2023-09-18T11:29:14;27.40;99.90
3156;DHT22;1588;50.892;7.082;2023-09-18T11:34:22;27.30;99.90
3156;DHT22;1588;50.892;7.082;2023-09-18T11:39:38;27.40;99.90
3156;DHT22;1588;50.892;7.082;2023-09-18T11:45:01;27.30;99.90
3156;DHT22;1588;50.892;7.082;2023-09-18T11:50:41;27.30;99.90
3156;DHT22;1588;50.892;7.082;2023-09-18T11:55:46;27.10;99.90
3156;DHT22;1588;50.892;7.082;2023-09-18T12:00:50;27.10;99.90
3156;DHT22;1588;50.892;7.082;2023-09-18T12:05:55;27.10;99.90
3156;DHT22;1588;50.892;7.082;2023-09-18T12:11:06;27.10;99.90
3156;DHT22;1588;50.892;7.082;2023-09-18T12:16:09;27.10;99.90
3156;DHT22;1588;50.892;7.082;2023-09-18T12:21:24;26.80;99.90
3156;DHT22;1588;50.892;7.082;2023-09-18T12:26:29;26.90;99.90
3156;DHT22;1588;50.892;7.082;2023-09-18T12:31:35;26.90;99.90
3156;DHT22;1588;50.892;7.082;2023-09-18T12:36:41;26.90;99.90
3156;DHT22;1588;50.892;7.082;2023-09-18T12:41:48;26.70;99.90
3156;DHT22;1588;50.892;7.082;2023-09-18T12:46:51;26.70;99.90
3156;DHT22;1588;50.892;7.082;2023-09-18T12:51:57;26.80;99.90
3156;DHT22;1588;50.892;7.082;2023-09-18T12:57:07;26.80;99.90
3156;DHT22;1588;50.892;7.082;2023-09-18T13:02:18;26.70;99.90
3156;DHT22;1588;50.892;7.082;2023-09-18T13:07:24;26.60;99.90
3156;DHT22;1588;50.892;7.082;2023-09-18T13:12:41;26.60;99.90
3156;DHT22;1588;50.892;7.082;2023-09-18T13:17:46;26.80;99.90
3156;DHT22;1588;50.892;7.082;2023-09-18T13:22:58;26.50;99.90
3156;DHT22;1588;50.892;7.082;2023-09-18T13:28:05;26.60;99.90
3156;DHT22;1588;50.892;7.082;2023-09-18T13:33:09;26.50;99.90
3156;DHT22;1588;50.892;7.082;2023-09-18T13:38:12;26.20;99.90
3156;DHT22;1588;50.892;7.082;2023-09-18T13:43:17;26.20;99.90
3156;DHT22;1588;50.892;7.082;2023-09-18T13:48:22;26.10;99.90
3156;DHT22;1588;50.892;7.082;2023-09-18T13:53:47;26.20;99.90
3156;DHT22;1588;50.892;7.082;2023-09-18T13:58:51;26.10;99.90
3156;DHT22;1588;50.892;7.082;2023-09-18T14:03:55;26.00;99.90
3156;DHT22;1588;50.892;7.082;2023-09-18T14:09:07;26.20;99.90
3156;DHT22;1588;50.892;7.082;2023-09-18T14:14:52;26.00;99.90
3156;DHT22;1588;50.892;7.082;2023-09-18T14:20:18;26.10;99.90
3156;DHT22;1588;50.892;7.082;2023-09-18T14:25:21;26.00;99.90
3156;DHT22;1588;50.892;7.082;2023-09-18T14:30:47;26.00;99.90
3156;DHT22;1588;50.892;7.082;2023-09-18T14:36:35;25.90;99.90
3156;DHT22;1588;50.892;7.082;2023-09-18T14:41:40;26.00;99.90
3156;DHT22;1588;50.892;7.082;2023-09-18T14:46:44;25.90;99.90
3156;DHT22;1588;50.892;7.082;2023-09-18T14:51:48;25.90;99.90
3156;DHT22;1588;50.892;7.082;2023-09-18T14:57:11;25.70;99.90
3156;DHT22;1588;50.892;7.082;2023-09-18T15:02:15;25.50;99.90
3156;DHT22;1588;50.892;7.082;2023-09-18T15:07:35;25.50;99.90
3156;DHT22;1588;50.892;7.082;2023-09-18T15:12:42;25.50;99.90
3156;DHT22;1588;50.892;7.082;2023-09-18T15:17:46;25.30;99.90
3156;DHT22;1588;50.892;7.082;2023-09-18T15:22:54;25.20;99.90
3156;DHT22;1588;50.892;7.082;2023-09-18T15:27:57;25.00;99.90
3156;DHT22;1588;50.892;7.082;2023-09-18T15:33:01;24.80;99.90
3156;DHT22;1588;50.892;7.082;2023-09-18T15:38:04;24.90;99.90
3156;DHT22;1588;50.892;7.082;2023-09-18T15:43:08;24.90;99.90
3156;DHT22;1588;50.892;7.082;2023-09-18T15:48:14;24.80;99.90
3156;DHT22;1588;50.892;7.082;2023-09-18T15:53:18;24.70;99.90
3156;DHT22;1588;50.892;7.082;2023-09-18T15:58:21;24.60;99.90
3156;DHT22;1588;50.892;7.082;2023-09-18T16:03:32;24.30;99.90
3156;DHT22;1588;50.892;7.082;2023-09-18T16:08:35;24.20;99.90
3156;DHT22;1588;50.892;7.082;2023-09-18T16:13:38;24.10;99.90
3156;DHT22;1588;50.892;7.082;2023-09-18T16:18:42;24.10;99.90
3156;DHT22;1588;50.892;7.082;2023-09-18T16:23:46;24.00;99.90
3156;DHT22;1588;50.892;7.082;2023-09-18T16:28:52;24.00;99.90
3156;DHT22;1588;50.892;7.082;2023-09-18T16:33:57;24.10;99.90
3156;DHT22;1588;50.892;7.082;2023-09-18T16:39:04;24.10;99.90
3156;DHT22;1588;50.892;7.082;2023-09-18T16:44:08;24.10;99.90
3156;DHT22;1588;50.892;7.082;2023-09-18T16:49:14;23.80;99.90
3156;DHT22;1588;50.892;7.082;2023-09-18T16:54:41;23.60;99.90
3156;DHT22;1588;50.892;7.082;2023-09-18T16:59:44;23.40;99.90
3156;DHT22;1588;50.892;7.082;2023-09-18T17:05:00;23.30;99.90
3156;DHT22;1588;50.892;7.082;2023-09-18T17:10:06;23.10;99.90
3156;DHT22;1588;50.892;7.082;2023-09-18T17:15:32;22.90;99.90
3156;DHT22;1588;50.892;7.082;2023-09-18T17:20:39;22.90;99.90
3156;DHT22;1588;50.892;7.082;2023-09-18T17:25:53;22.70;99.90
3156;DHT22;1588;50.892;7.082;2023-09-18T17:31:16;22.60;99.90
3156;DHT22;1588;50.892;7.082;2023-09-18T17:37:14;22.60;99.90
3156;DHT22;1588;50.892;7.082;2023-09-18T17:42:21;22.20;99.90
3156;DHT22;1588;50.892;7.082;2023-09-18T17:47:28;22.10;99.90
3156;DHT22;1588;50.892;7.082;2023-09-18T17:52:50;22.10;99.90
3156;DHT22;1588;50.892;7.082;2023-09-18T17:58:06;21.90;99.90
3156;DHT22;1588;50.892;7.082;2023-09-18T18:03:14;21.80;99.90
3156;DHT22;1588;50.892;7.082;2023-09-18T18:08:24;21.80;99.90
3156;DHT22;1588;50.892;7.082;2023-09-18T18:13:27;21.70;99.90
3156;DHT22;1588;50.892;7.082;2023-09-18T18:18:32;21.60;99.90
3156;DHT22;1588;50.892;7.082;2023-09-18T18:23:42;21.60;99.90
3156;DHT22;1588;50.892;7.082;2023-09-18T18:28:47;21.60;99.90
3156;DHT22;1588;50.892;7.082;2023-09-18T18:33:51;21.50;99.90
3156;DHT22;1588;50.892;7.082;2023-09-18T18:39:13;19.40;99.90
3156;DHT22;1588;50.892;7.082;2023-09-18T18:44:21;18.40;99.90
3156;DHT22;1588;50.892;7.082;2023-09-18T18:49:25;18.00;99.90
3156;DHT22;1588;50.892;7.082;2023-09-18T18:54:30;17.70;99.90
3156;DHT22;1588;50.892;7.082;2023-09-18T18:59:42;17.40;99.90
3156;DHT22;1588;50.892;7.082;2023-09-18T19:04:55;17.30;99.90
3156;DHT22;1588;50.892;7.082;2023-09-18T19:10:32;17.40;99.90
3156;DHT22;1588;50.892;7.082;2023-09-18T19:16:10;17.30;99.90
3156;DHT22;1588;50.892;7.082;2023-09-18T19:21:32;17.20;99.90
3156;DHT22;1588;50.892;7.082;2023-09-18T19:26:52;17.00;99.90
3156;DHT22;1588;50.892;7.082;2023-09-18T19:32:01;17.10;99.90
3156;DHT22;1588;50.892;7.082;2023-09-18T19:37:08;17.00;99.90
3156;DHT22;1588;50.892;7.082;2023-09-18T19:42:58;17.00;99.90
3156;DHT22;1588;50.892;7.082;2023-09-18T19:48:07;16.90;99.90
3156;DHT22;1588;50.892;7.082;2023-09-18T19:53:10;16.90;99.90
3156;DHT22;1588;50.892;7.082;2023-09-18T19:58:26;16.80;99.90
3156;DHT22;1588;50.892;7.082;2023-09-18T20:03:39;16.90;99.90
3156;DHT22;1588;50.892;7.082;2023-09-18T20:08:47;16.90;99.90
3156;DHT22;1588;50.892;7.082;2023-09-18T20:13:56;16.90;99.90
3156;DHT22;1588;50.892;7.082;2023-09-18T20:19:08;16.90;99.90
3156;DHT22;1588;50.892;7.082;2023-09-18T20:24:24;16.90;99.90
3156;DHT22;1588;50.892;7.082;2023-09-18T20:29:44;16.90;99.90
3156;DHT22;1588;50.892;7.082;2023-09-18T20:35:37;17.00;99.90
3156;DHT22;1588;50.892;7.082;2023-09-18T20:40:44;16.90;99.90
3156;DHT22;1588;50.892;7.082;2023-09-18T20:45:50;16.90;99.90
3156;DHT22;1588;50.892;7.082;2023-09-18T20:50:53;16.90;99.90
3156;DHT22;1588;50.892;7.082;2023-09-18T20:55:57;16.80;99.90
3156;DHT22;1588;50.892;7.082;2023-09-18T21:01:09;16.90;99.90
3156;DHT22;1588;50.892;7.082;2023-09-18T21:06:13;16.90;99.90
3156;DHT22;1588;50.892;7.082;2023-09-18T21:11:17;16.90;99.90
3156;DHT22;1588;50.892;7.082;2023-09-18T21:16:24;16.80;99.90
3156;DHT22;1588;50.892;7.082;2023-09-18T21:21:32;16.80;99.90
3156;DHT22;1588;50.892;7.082;2023-09-18T21:26:49;16.80;99.90
3156;DHT22;1588;50.892;7.082;2023-09-18T21:31:54;16.90;99.90
3156;DHT22;1588;50.892;7.082;2023-09-18T21:36:58;16.90;99.90
3156;DHT22;1588;50.892;7.082;2023-09-18T21:42:01;17.00;99.90
3156;DHT22;1588;50.892;7.082;2023-09-18T21:47:06;17.00;99.90
3156;DHT22;1588;50.892;7.082;2023-09-18T21:52:12;17.00;99.90
3156;DHT22;1588;50.892;7.082;2023-09-18T21:57:16;17.00;99.90
3156;DHT22;1588;50.892;7.082;2023-09-18T22:02:22;16.90;99.90
3156;DHT22;1588;50.892;7.082;2023-09-18T22:07:27;17.00;99.90
3156;DHT22;1588;50.892;7.082;2023-09-18T22:12:36;16.90;99.90
3156;DHT22;1588;50.892;7.082;2023-09-18T22:17:43;16.90;99.90
3156;DHT22;1588;50.892;7.082;2023-09-18T22:22:46;16.80;99.90
3156;DHT22;1588;50.892;7.082;2023-09-18T22:27:49;16.80;99.90
3156;DHT22;1588;50.892;7.082;2023-09-18T22:32:56;16.60;99.90
3156;DHT22;1588;50.892;7.082;2023-09-18T22:38:04;16.60;99.90
3156;DHT22;1588;50.892;7.082;2023-09-18T22:54:44;16.20;99.90
3156;DHT22;1588;50.892;7.082;2023-09-18T22:59:50;16.10;99.90
3156;DHT22;1588;50.892;7.082;2023-09-18T23:04:53;16.00;99.90
3156;DHT22;1588;50.892;7.082;2023-09-18T23:10:01;15.90;99.90
3156;DHT22;1588;50.892;7.082;2023-09-18T23:15:06;15.90;99.90
3156;DHT22;1588;50.892;7.082;2023-09-18T23:20:21;15.90;99.90
3156;DHT22;1588;50.892;7.082;2023-09-18T23:25:27;15.90;99.90
3156;DHT22;1588;50.892;7.082;2023-09-18T23:30:34;15.90;99.90
3156;DHT22;1588;50.892;7.082;2023-09-18T23:35:46;15.80;99.90
3156;DHT22;1588;50.892;7.082;2023-09-18T23:40:54;15.90;99.90
3156;DHT22;1588;50.892;7.082;2023-09-18T23:46:12;15.80;99.90
3156;DHT22;1588;50.892;7.082;2023-09-18T23:51:16;15.80;99.90
3156;DHT22;1588;50.892;7.082;2023-09-18T23:56:22;15.80;99.90
